createdAt,value
2018-05-08T00:00:00.486Z,14.5
2018-05-08T00:05:00.418Z,15.0
2018-05-08T00:10:00.568Z,14.5
2018-05-08T00:15:00.415Z,14.7
2018-05-08T00:20:00.519Z,15.0
2018-05-08T00:25:00.414Z,15.8
2018-05-08T00:30:00.492Z,16.3
2018-05-08T00:35:00.420Z,17.0
2018-05-08T00:40:00.479Z,17.1
2018-05-08T00:45:00.423Z,16.4
2018-05-08T00:50:00.560Z,16.0
2018-05-08T01:00:00.502Z,16.5
2018-05-08T01:05:00.480Z,16.8
2018-05-08T01:10:00.438Z,17.5
2018-05-08T01:15:00.433Z,17.6
2018-05-08T01:20:00.581Z,18.3
2018-05-08T01:25:00.435Z,18.5
2018-05-08T01:30:00.497Z,18.0
2018-05-08T01:35:00.425Z,18.2
2018-05-08T01:40:00.454Z,18.4
2018-05-08T01:45:00.394Z,17.7
2018-05-08T01:50:00.433Z,18.0
2018-05-08T01:55:00.461Z,18.8
2018-05-08T02:00:00.556Z,18.8
2018-05-08T02:05:00.467Z,18.4
2018-05-08T02:10:00.499Z,18.8
2018-05-08T02:15:00.436Z,17.8
2018-05-08T02:20:00.494Z,17.2
2018-05-08T02:30:00.531Z,17.0
2018-05-08T02:35:00.404Z,17.4
2018-05-08T02:40:00.467Z,17.6
2018-05-08T02:45:00.408Z,17.0
2018-05-08T02:50:00.474Z,15.7
2018-05-08T02:55:00.411Z,15.3
2018-05-08T03:00:00.541Z,14.4
2018-05-08T03:05:00.471Z,14.5
2018-05-08T03:10:00.565Z,14.7
2018-05-08T03:15:00.409Z,15.0
2018-05-08T03:25:00.403Z,14.5
2018-05-08T03:30:00.470Z,13.6
2018-05-08T03:35:00.410Z,13.2
2018-05-08T03:40:00.535Z,13.0
2018-05-08T03:45:00.379Z,13.0
2018-05-08T03:55:00.550Z,13.9
2018-05-08T04:00:00.545Z,13.9
2018-05-08T04:25:00.667Z,12.2
2018-05-08T04:30:00.596Z,13.9
2018-05-08T04:35:00.493Z,13.1
2018-05-08T04:40:00.610Z,12.8
2018-05-08T04:45:00.498Z,13.3
2018-05-08T04:50:00.660Z,14.1
2018-05-08T04:55:00.496Z,13.5
2018-05-08T05:00:00.625Z,14.1
2018-05-08T05:05:00.499Z,15.0
2018-05-08T05:10:00.582Z,15.3
2018-05-08T05:15:00.503Z,14.7
2018-05-08T05:20:00.591Z,14.8
2018-05-08T05:25:00.532Z,14.7
2018-05-08T05:30:00.661Z,13.5
2018-05-08T05:35:00.532Z,12.6
2018-05-08T05:40:00.623Z,12.8
2018-05-08T05:45:00.512Z,12.3
2018-05-08T05:50:00.578Z,12.1
2018-05-08T05:55:00.484Z,13.7
2018-05-08T06:00:00.599Z,13.5
2018-05-08T06:05:00.522Z,14.6
2018-05-08T06:10:00.618Z,14.7
2018-05-08T06:15:00.523Z,14.8
2018-05-08T06:20:00.671Z,13.8
2018-05-08T06:25:00.482Z,14.0
2018-05-08T06:30:00.648Z,12.4
2018-05-08T06:35:00.521Z,12.5
2018-05-08T06:40:00.622Z,12.2
2018-05-08T06:45:00.520Z,12.0
2018-05-08T06:50:00.588Z,12.4
2018-05-08T06:55:00.623Z,12.7
2018-05-08T07:00:00.652Z,13.5
2018-05-08T07:05:00.548Z,13.4
2018-05-08T07:10:00.654Z,13.6
2018-05-08T07:15:00.538Z,13.4
2018-05-08T07:20:00.591Z,14.0
2018-05-08T07:25:00.590Z,13.5
2018-05-08T07:30:00.603Z,15.4
2018-05-08T07:35:00.499Z,16.2
2018-05-08T07:40:00.664Z,16.9
2018-05-08T07:45:00.532Z,16.3
2018-05-08T07:50:00.592Z,16.8
2018-05-08T07:55:00.543Z,15.6
2018-05-08T08:00:00.595Z,15.4
2018-05-08T08:05:00.537Z,14.6
2018-05-08T08:10:00.728Z,15.0
2018-05-08T08:15:00.567Z,16.2
2018-05-08T08:20:00.697Z,16.8
2018-05-08T08:25:00.582Z,17.1
2018-05-08T08:30:00.722Z,18.2
2018-05-08T08:35:00.588Z,19.6
2018-05-08T08:40:00.730Z,18.9
2018-05-08T08:45:00.570Z,19.4
2018-05-08T08:50:00.619Z,20.4
2018-05-08T08:55:00.592Z,20.8
2018-05-08T09:00:00.659Z,22.2
2018-05-08T09:05:00.621Z,22.8
2018-05-08T09:10:00.755Z,23.3
2018-05-08T09:15:00.529Z,23.8
2018-05-08T09:20:00.720Z,24.2
2018-05-08T09:25:00.622Z,23.0
2018-05-08T09:30:00.560Z,23.5
2018-05-08T09:35:00.655Z,23.7
2018-05-08T09:45:00.632Z,23.3
2018-05-08T09:50:00.686Z,22.3
2018-05-08T09:55:00.558Z,21.5
2018-05-08T10:00:00.691Z,20.5
2018-05-08T10:05:00.614Z,19.3
2018-05-08T10:10:00.673Z,18.6
2018-05-08T10:15:00.594Z,19.3
2018-05-08T10:20:00.720Z,19.8
2018-05-08T10:25:00.568Z,20.4
2018-05-08T10:30:00.644Z,20.9
2018-05-08T10:35:00.596Z,22.0
2018-05-08T10:40:00.596Z,21.8
2018-05-08T10:45:00.601Z,22.0
2018-05-08T10:50:00.660Z,21.2
2018-05-08T10:55:00.594Z,20.8
2018-05-08T11:00:00.788Z,21.8
2018-05-08T11:05:00.600Z,22.1
2018-05-08T11:10:00.670Z,21.2
2018-05-08T11:15:00.603Z,20.8
2018-05-08T11:20:00.830Z,20.4
2018-05-08T11:25:00.595Z,18.7
2018-05-08T11:30:00.726Z,17.4
2018-05-08T11:35:00.585Z,19.0
2018-05-08T11:40:00.667Z,19.9
2018-05-08T11:45:00.745Z,21.3
2018-05-08T11:50:00.719Z,21.2
2018-05-08T11:55:00.605Z,22.3
2018-05-08T12:00:00.792Z,22.2
2018-05-08T12:05:00.634Z,22.3
2018-05-08T12:10:00.807Z,21.3
2018-05-08T12:15:00.604Z,22.1
2018-05-08T12:20:00.674Z,21.1
2018-05-08T12:25:00.652Z,19.2
2018-05-08T12:30:00.676Z,18.6
2018-05-08T12:35:00.618Z,17.4
2018-05-08T12:40:00.743Z,16.1
2018-05-08T12:45:00.587Z,16.1
2018-05-08T12:50:00.693Z,16.0
2018-05-08T12:55:00.591Z,15.1
2018-05-08T13:00:00.680Z,15.3
2018-05-08T13:05:00.640Z,14.6
2018-05-08T13:10:00.806Z,15.2
2018-05-08T13:15:00.623Z,15.3
2018-05-08T13:20:00.688Z,15.6
2018-05-08T13:25:00.624Z,15.7
2018-05-08T13:30:00.599Z,16.2
2018-05-08T13:35:00.592Z,16.0
2018-05-08T13:40:00.774Z,15.7
2018-05-08T13:45:00.605Z,16.1
2018-05-08T13:50:00.699Z,16.2
2018-05-08T13:55:00.663Z,15.8
2018-05-08T14:00:00.701Z,14.8
2018-05-08T14:05:00.687Z,14.6
2018-05-08T14:10:00.767Z,14.1
2018-05-08T14:15:00.639Z,13.0
2018-05-08T14:25:00.735Z,12.5
2018-05-08T14:30:00.649Z,12.4
2018-05-08T14:35:00.643Z,11.7
2018-05-08T14:40:00.841Z,12.6
2018-05-08T14:45:00.632Z,13.1
2018-05-08T14:50:00.639Z,14.5
2018-05-08T14:55:00.643Z,14.8
2018-05-08T15:00:00.640Z,15.7
2018-05-08T15:05:00.659Z,16.5
2018-05-08T15:10:00.649Z,17.2
2018-05-08T15:15:00.650Z,17.4
2018-05-08T15:20:00.650Z,17.9
2018-05-08T15:25:00.678Z,18.8
2018-05-08T15:30:00.630Z,18.9
2018-05-08T15:40:00.630Z,18.3
2018-05-08T15:45:00.732Z,17.8
2018-05-08T15:50:00.725Z,16.6
2018-05-08T15:55:00.632Z,15.2
2018-05-08T16:00:00.764Z,14.2
2018-05-08T16:05:00.675Z,13.8
2018-05-08T16:10:00.660Z,14.6
2018-05-08T16:15:00.637Z,14.8
2018-05-08T16:20:00.728Z,15.1
2018-05-08T16:25:00.688Z,15.8
2018-05-08T16:30:00.789Z,16.2
2018-05-08T16:35:00.626Z,16.8
2018-05-08T16:40:00.655Z,17.3
2018-05-08T16:45:00.782Z,17.5
2018-05-08T16:55:00.736Z,18.4
2018-05-08T17:00:00.679Z,17.3
2018-05-08T17:05:00.639Z,17.6
2018-05-08T17:10:00.762Z,17.2
2018-05-08T17:15:00.637Z,16.6
2018-05-08T17:20:00.829Z,15.0
2018-05-08T17:25:00.667Z,14.8
2018-05-08T17:30:00.707Z,13.7
2018-05-08T17:35:00.644Z,13.8
2018-05-08T17:40:00.779Z,13.7
2018-05-08T17:45:00.644Z,13.6
2018-05-08T17:50:00.720Z,13.2
2018-05-08T17:55:00.649Z,12.6
2018-05-08T18:00:00.722Z,12.5
2018-05-08T18:05:00.657Z,12.0
2018-05-08T18:15:00.763Z,11.9
2018-05-08T18:20:00.746Z,11.6
2018-05-08T18:25:00.715Z,10.6
2018-05-08T18:30:00.809Z,10.8
2018-05-08T18:35:00.680Z,10.2
2018-05-08T18:40:00.738Z,9.7
2018-05-08T18:45:00.620Z,9.5
2018-05-08T18:50:00.751Z,8.9
2018-05-08T18:55:00.686Z,7.7
2018-05-08T19:00:00.753Z,7.7
2018-05-08T19:05:00.660Z,7.5
2018-05-08T19:10:00.717Z,6.8
2018-05-08T19:15:00.652Z,6.8
2018-05-08T19:25:00.676Z,6.2
2018-05-08T19:30:00.716Z,5.8
2018-05-08T19:35:00.655Z,6.1
2018-05-08T19:45:00.849Z,6.1
2018-05-08T19:50:00.657Z,6.2
2018-05-08T20:00:00.796Z,6.2
2018-05-08T20:05:00.654Z,6.6
2018-05-08T20:10:00.728Z,6.9
2018-05-08T20:15:00.660Z,6.9
2018-05-08T20:25:00.720Z,7.2
2018-05-08T20:30:00.787Z,6.8
2018-05-08T20:35:00.663Z,6.7
2018-05-08T20:40:00.788Z,7.1
2018-05-08T20:45:00.701Z,7.3
2018-05-08T20:50:00.699Z,7.2
2018-05-08T21:00:00.821Z,7.6
2018-05-08T21:05:00.736Z,7.5
2018-05-08T21:10:00.731Z,7.6
2018-05-08T21:15:00.778Z,7.6
2018-05-08T21:20:00.771Z,8.2
2018-05-08T21:30:00.735Z,8.5
2018-05-08T21:40:00.827Z,8.6
2018-05-08T21:45:00.683Z,8.6
2018-05-08T21:50:00.811Z,8.4
2018-05-08T21:55:00.712Z,8.6
2018-05-08T22:00:00.851Z,9.0
2018-05-08T22:05:00.733Z,9.1
2018-05-08T22:10:00.902Z,9.2
2018-05-08T22:15:00.730Z,8.6
2018-05-08T22:20:00.793Z,8.4
2018-05-08T22:25:00.714Z,8.2
2018-05-08T22:30:00.750Z,8.6
2018-05-08T22:35:00.702Z,8.4
2018-05-08T22:40:00.864Z,9.0
2018-05-08T22:45:00.745Z,9.8
2018-05-08T22:50:00.798Z,10.2
2018-05-08T23:00:00.792Z,10.5
2018-05-08T23:05:00.726Z,10.8
2018-05-08T23:10:00.921Z,10.7
2018-05-08T23:15:00.726Z,11.0
2018-05-08T23:20:00.772Z,11.1
2018-05-08T23:25:00.755Z,11.0
2018-05-08T23:30:00.798Z,11.1
2018-05-08T23:35:00.702Z,10.6
2018-05-08T23:40:00.795Z,10.5
2018-05-08T23:45:00.738Z,10.0
2018-05-08T23:55:00.810Z,10.8
